Time;durP1;ratioP1;P1;durP2;ratioP2;P2;SDS_P1;SDS_P2;PMS_P1;PMS_P2;Temp;Humidity;BMP_temperature;BMP_pressure;BME280_temperature;BME280_humidity;BME280_pressure;Samples;Min_cycle;Max_cycle;Signal;HPM_P1;HPM_P2
2023/11/26 00:01:34;;;;;;;45.42;24.08;;;;;;;-1.82;100.00;96191.03;5018825;28;20083;-67
2023/11/26 00:03:59;;;;;;;43.28;23.58;;;;;;;-1.90;100.00;96193.88;5018954;28;20100;-67
2023/11/26 00:06:25;;;;;;;44.28;22.38;;;;;;;-1.85;100.00;96194.56;5024462;28;20495;-67
2023/11/26 00:08:50;;;;;;;38.85;20.80;;;;;;;-1.82;100.00;96191.88;5020482;28;20022;-67
2023/11/26 00:11:16;;;;;;;34.63;20.10;;;;;;;-1.84;100.00;96188.50;5024172;28;20037;-67
2023/11/26 00:13:41;;;;;;;40.13;21.23;;;;;;;-1.82;100.00;96181.56;5018346;28;20034;-66
2023/11/26 00:16:07;;;;;;;34.42;18.92;;;;;;;-1.89;100.00;96175.75;5020840;28;20013;-67
2023/11/26 00:18:32;;;;;;;38.08;20.73;;;;;;;-1.95;100.00;96180.28;5024569;28;20091;-66
2023/11/26 00:20:57;;;;;;;34.63;20.08;;;;;;;-1.94;100.00;96176.81;5016951;28;20050;-66
2023/11/26 00:23:23;;;;;;;39.40;21.38;;;;;;;-1.93;100.00;96178.50;5020651;28;20103;-67
2023/11/26 00:25:48;;;;;;;36.40;21.05;;;;;;;-1.94;100.00;96179.38;5025769;28;20469;-67
2023/11/26 00:28:14;;;;;;;37.58;22.48;;;;;;;-1.98;100.00;96176.09;5012630;28;20072;-67
2023/11/26 00:30:39;;;;;;;36.58;21.30;;;;;;;-1.96;100.00;96176.03;5017365;28;20030;-67
2023/11/26 00:33:04;;;;;;;35.28;19.48;;;;;;;-1.95;100.00;96177.72;5018495;28;20078;-67
2023/11/26 00:35:30;;;;;;;32.88;17.40;;;;;;;-1.96;100.00;96169.13;5016928;28;20136;-66
2023/11/26 00:37:55;;;;;;;30.70;19.58;;;;;;;-2.00;100.00;96167.53;5018286;28;20022;-67
2023/11/26 00:40:24;;;;;;;29.50;17.88;;;;;;;-2.11;100.00;96167.06;5014527;28;20061;-67
2023/11/26 00:42:50;;;;;;;36.60;20.45;;;;;;;-2.13;100.00;96167.13;5017824;28;20117;-67
2023/11/26 00:45:16;;;;;;;31.52;19.13;;;;;;;-2.11;100.00;96174.81;5020597;28;20018;-67
2023/11/26 00:47:41;;;;;;;34.00;19.55;;;;;;;-2.12;100.00;96168.81;5037661;28;20045;-67
2023/11/26 00:50:08;;;;;;;33.88;19.23;;;;;;;-2.08;100.00;96164.38;5018036;28;20024;-67
2023/11/26 00:52:34;;;;;;;33.65;20.00;;;;;;;-2.06;100.00;96162.59;5041351;28;20042;-67
2023/11/26 00:54:59;;;;;;;32.67;18.08;;;;;;;-2.10;100.00;96156.72;5025097;28;20032;-67
2023/11/26 00:57:26;;;;;;;11.10;7.50;;;;;;;-2.06;100.00;96154.84;5021023;28;20026;-67
2023/11/26 00:59:52;;;;;;;18.67;9.15;;;;;;;-1.99;100.00;96155.50;5027404;28;20531;-67
2023/11/26 01:02:19;;;;;;;11.50;6.10;;;;;;;-1.96;100.00;96145.91;5018915;28;20069;-67
2023/11/26 01:04:44;;;;;;;11.00;5.25;;;;;;;-1.92;100.00;96146.63;5022594;28;20041;-67
2023/11/26 01:07:11;;;;;;;14.52;8.13;;;;;;;-1.84;100.00;96142.06;5026837;28;20029;-67
2023/11/26 01:09:36;;;;;;;10.73;5.85;;;;;;;-1.81;100.00;96147.09;5020582;28;20057;-67
2023/11/26 01:12:03;;;;;;;10.98;4.22;;;;;;;-1.80;100.00;96146.19;5018494;28;20037;-67
2023/11/26 01:14:29;;;;;;;4.63;3.38;;;;;;;-1.77;100.00;96142.66;5025150;28;20104;-67
2023/11/26 01:16:54;;;;;;;6.45;3.50;;;;;;;-1.75;100.00;96146.03;5019140;28;20116;-67
2023/11/26 01:19:20;;;;;;;10.98;4.28;;;;;;;-1.77;100.00;96143.50;5029725;28;20040;-67
2023/11/26 01:21:45;;;;;;;8.77;3.47;;;;;;;-1.79;100.00;96147.88;5026592;28;20041;-67
2023/11/26 01:24:11;;;;;;;4.60;3.28;;;;;;;-1.79;100.00;96155.63;5022519;28;20033;-67
2023/11/26 01:26:37;;;;;;;11.93;3.78;;;;;;;-1.78;100.00;96154.72;5025816;28;20091;-67
2023/11/26 01:29:02;;;;;;;6.65;3.60;;;;;;;-1.77;100.00;96147.81;5024821;28;20379;-67
2023/11/26 01:31:28;;;;;;;14.23;6.97;;;;;;;-1.79;100.00;96147.88;5021240;28;20085;-67
2023/11/26 01:33:53;;;;;;;7.13;4.70;;;;;;;-1.87;100.00;96148.16;5036503;28;20749;-67
2023/11/26 01:36:18;;;;;;;4.97;3.95;;;;;;;-1.87;100.00;96152.50;5020760;28;20073;-67
2023/11/26 01:38:44;;;;;;;4.78;3.55;;;;;;;-1.85;100.00;96158.44;5024590;28;20029;-67
2023/11/26 01:41:10;;;;;;;7.68;4.03;;;;;;;-1.83;100.00;96159.22;5018532;28;20026;-67
2023/11/26 01:43:35;;;;;;;5.78;3.97;;;;;;;-1.86;100.00;96161.91;5023368;28;20041;-67
2023/11/26 01:46:07;;;;;;;7.78;4.65;;;;;;;-1.88;100.00;96161.09;5017812;28;20030;-67
2023/11/26 01:48:34;;;;;;;4.38;3.97;;;;;;;-1.96;100.00;96163.13;5018289;28;20021;-67
2023/11/26 01:51:01;;;;;;;7.00;4.93;;;;;;;-2.00;100.00;96174.44;5017797;28;20121;-67
2023/11/26 01:53:27;;;;;;;9.90;5.88;;;;;;;-2.16;100.00;96172.38;5017490;28;20022;-67
2023/11/26 01:55:53;;;;;;;8.98;6.40;;;;;;;-2.21;100.00;96179.44;5023799;28;20018;-67
2023/11/26 01:58:19;;;;;;;10.60;6.90;;;;;;;-2.33;100.00;96183.28;5017983;28;20032;-67
2023/11/26 02:00:45;;;;;;;13.02;7.22;;;;;;;-2.41;100.00;96187.84;5025729;28;20068;-67
2023/11/26 02:03:11;;;;;;;14.43;8.68;;;;;;;-2.50;100.00;96182.09;5021177;28;20025;-67
2023/11/26 02:05:37;;;;;;;12.85;7.55;;;;;;;-2.51;100.00;96187.31;5019106;28;20032;-67
2023/11/26 02:08:03;;;;;;;8.90;6.07;;;;;;;-2.46;100.00;96191.41;5028469;28;20104;-67
2023/11/26 02:10:28;;;;;;;7.60;5.75;;;;;;;-2.33;100.00;96198.75;5024337;28;20072;-67
2023/11/26 02:13:05;;;;;;;12.63;7.43;;;;;;;-2.36;100.00;96196.28;5030497;28;20030;-67
2023/11/26 02:15:31;;;;;;;12.88;8.18;;;;;;;-2.38;100.00;96198.91;5022030;28;20109;-67
2023/11/26 02:17:56;;;;;;;13.02;7.65;;;;;;;-2.38;100.00;96196.31;5017353;28;20565;-67
2023/11/26 02:20:22;;;;;;;14.07;6.75;;;;;;;-2.46;100.00;96190.56;5016846;28;20065;-67
2023/11/26 02:22:48;;;;;;;14.35;7.47;;;;;;;-2.50;100.00;96194.97;5021438;28;20057;-67
2023/11/26 02:25:14;;;;;;;10.13;6.75;;;;;;;-2.47;100.00;96191.47;5020322;28;20045;-66
2023/11/26 02:27:39;;;;;;;12.63;7.30;;;;;;;-2.53;100.00;96191.69;5015387;28;20091;-67
2023/11/26 02:30:08;;;;;;;10.73;7.00;;;;;;;-2.59;100.00;96190.97;5024160;28;20025;-67
2023/11/26 02:32:33;;;;;;;10.63;6.28;;;;;;;-2.58;100.00;96181.50;5025001;28;20053;-67
2023/11/26 02:34:58;;;;;;;9.40;5.50;;;;;;;-2.61;100.00;96179.84;5031545;28;20026;-67
2023/11/26 02:37:24;;;;;;;11.00;6.70;;;;;;;-2.67;100.00;96177.50;5029213;28;20497;-67
2023/11/26 02:39:49;;;;;;;8.27;4.90;;;;;;;-2.68;100.00;96178.38;5021466;28;20085;-67
2023/11/26 02:42:14;;;;;;;7.82;5.43;;;;;;;-2.66;100.00;96174.00;5021015;28;20037;-67
2023/11/26 02:44:40;;;;;;;9.95;4.80;;;;;;;-2.71;100.00;96183.63;5019812;28;20029;-67
2023/11/26 02:47:07;;;;;;;11.93;5.68;;;;;;;-2.72;100.00;96178.50;5016361;28;20038;-67
2023/11/26 02:49:33;;;;;;;7.68;5.53;;;;;;;-2.77;100.00;96178.66;5014761;28;20038;-67
2023/11/26 02:51:58;;;;;;;15.63;7.15;;;;;;;-2.76;100.00;96181.19;5025268;28;20058;-67
2023/11/26 02:54:24;;;;;;;12.88;6.78;;;;;;;-2.73;100.00;96182.84;5030367;28;20037;-67
2023/11/26 02:56:49;;;;;;;10.35;6.03;;;;;;;-2.79;100.00;96183.00;5028537;28;20061;-67
2023/11/26 02:59:15;;;;;;;14.80;6.30;;;;;;;-2.82;100.00;96180.53;5021748;28;20025;-67
2023/11/26 03:01:40;;;;;;;10.48;6.63;;;;;;;-2.86;100.00;96182.38;5015521;28;20033;-67
2023/11/26 03:04:09;;;;;;;7.72;5.38;;;;;;;-2.90;100.00;96180.78;5027463;28;20026;-67
2023/11/26 03:06:35;;;;;;;11.38;5.60;;;;;;;-2.90;100.00;96181.63;5029808;28;20030;-67
2023/11/26 03:09:10;;;;;;;8.57;5.15;;;;;;;-2.88;100.00;96177.28;5016431;28;20037;-66
2023/11/26 03:14:19;;;;;;;8.27;5.45;;;;;;;-2.90;100.00;96176.47;5022805;28;20052;-67
2023/11/26 03:16:45;;;;;;;10.80;5.40;;;;;;;-2.95;100.00;96177.50;5014767;28;20490;-67
2023/11/26 03:19:12;;;;;;;7.03;5.95;;;;;;;-3.00;100.00;96182.78;5022893;28;20021;-67
2023/11/26 03:21:40;;;;;;;8.30;6.30;;;;;;;-3.00;100.00;96176.81;5026109;28;20029;-66
2023/11/26 03:24:07;;;;;;;14.13;7.00;;;;;;;-3.05;100.00;96182.94;5022078;28;20059;-67
2023/11/26 03:26:33;;;;;;;8.35;7.35;;;;;;;-3.07;100.00;96184.72;5023918;28;20089;-66
2023/11/26 03:28:58;;;;;;;11.70;9.43;;;;;;;-3.11;100.00;96180.53;5025544;28;20561;-67
2023/11/26 03:31:24;;;;;;;17.92;10.60;;;;;;;-3.07;100.00;96176.16;5016467;28;20032;-67
2023/11/26 03:33:52;;;;;;;16.23;10.82;;;;;;;-3.09;100.00;96177.94;5041648;28;20033;-67
2023/11/26 03:36:17;;;;;;;14.30;11.15;;;;;;;-3.12;100.00;96178.84;5025574;28;20095;-66
2023/11/26 03:38:42;;;;;;;16.77;9.15;;;;;;;-3.15;100.00;96186.69;5020949;28;20033;-66
2023/11/26 03:41:08;;;;;;;13.35;8.70;;;;;;;-3.18;100.00;96182.47;5030674;28;20072;-67
2023/11/26 03:43:33;;;;;;;11.75;8.02;;;;;;;-3.23;100.00;96171.44;5022201;28;20057;-66
2023/11/26 03:45:59;;;;;;;18.50;7.25;;;;;;;-3.27;100.00;96171.59;5022900;28;20104;-67
2023/11/26 03:48:24;;;;;;;8.55;5.50;;;;;;;-3.27;100.00;96171.59;5019398;28;20026;-66
2023/11/26 03:50:49;;;;;;;7.03;5.10;;;;;;;-3.27;100.00;96172.44;5036172;28;20026;-66
2023/11/26 03:53:15;;;;;;;8.10;5.90;;;;;;;-3.30;100.00;96167.38;5017498;28;20029;-66
2023/11/26 03:55:40;;;;;;;9.80;6.72;;;;;;;-3.31;100.00;96161.41;5026397;28;20104;-67
2023/11/26 03:58:06;;;;;;;10.98;7.03;;;;;;;-3.31;100.00;96156.25;5022073;28;20026;-66
2023/11/26 04:00:32;;;;;;;8.65;5.82;;;;;;;-3.32;100.00;96158.84;5019517;28;20022;-66
2023/11/26 04:02:57;;;;;;;9.48;5.60;;;;;;;-3.33;100.00;96164.91;5033216;28;20078;-66
2023/11/26 04:05:23;;;;;;;9.32;5.80;;;;;;;-3.34;100.00;96165.78;5035119;28;20048;-66
2023/11/26 04:07:48;;;;;;;10.00;6.45;;;;;;;-3.36;100.00;96157.28;5032637;28;20029;-66
2023/11/26 04:10:14;;;;;;;12.02;7.75;;;;;;;-3.34;100.00;96161.47;5030300;28;20029;-66
2023/11/26 04:12:39;;;;;;;17.77;7.78;;;;;;;-3.34;100.00;96155.50;5021427;28;20085;-66
2023/11/26 04:15:06;;;;;;;13.48;8.80;;;;;;;-3.33;100.00;96157.16;5034692;28;20553;-66
2023/11/26 04:17:33;;;;;;;17.67;8.85;;;;;;;-3.36;100.00;96146.97;5025948;28;20022;-66
2023/11/26 04:20:00;;;;;;;12.30;8.23;;;;;;;-3.36;100.00;96149.53;5038834;28;20029;-66
2023/11/26 04:22:26;;;;;;;16.92;9.93;;;;;;;-3.33;100.00;96157.16;5031993;28;20406;-66
2023/11/26 04:24:53;;;;;;;16.67;9.88;;;;;;;-3.33;100.00;96147.69;5018964;28;20052;-66
2023/11/26 04:27:21;;;;;;;16.70;9.57;;;;;;;-3.32;100.00;96141.69;5034544;28;20437;-66
2023/11/26 04:29:47;;;;;;;14.52;10.07;;;;;;;-3.33;100.00;96152.03;5019508;28;20029;-66
2023/11/26 04:32:13;;;;;;;11.93;8.50;;;;;;;-3.29;100.00;96145.06;5029225;28;20018;-66
2023/11/26 04:34:40;;;;;;;11.88;7.85;;;;;;;-3.24;100.00;96148.34;5024002;28;20092;-66
2023/11/26 04:37:08;;;;;;;12.93;6.93;;;;;;;-3.21;100.00;96136.19;5031054;28;20033;-66
2023/11/26 04:39:33;;;;;;;8.30;6.40;;;;;;;-3.34;100.00;96148.59;5018665;28;20506;-66
2023/11/26 04:41:59;;;;;;;9.50;6.32;;;;;;;-3.35;100.00;96144.34;5021452;28;20017;-66
2023/11/26 04:44:24;;;;;;;10.15;6.22;;;;;;;-3.22;100.00;96147.38;5026195;28;20022;-66
2023/11/26 04:46:49;;;;;;;8.65;5.93;;;;;;;-3.29;100.00;96151.03;5030732;28;20037;-66
2023/11/26 04:49:17;;;;;;;6.93;5.88;;;;;;;-3.37;100.00;96148.69;5029168;28;20036;-66
2023/11/26 04:51:42;;;;;;;10.60;6.10;;;;;;;-3.41;100.00;96149.66;5027637;28;20053;-65
2023/11/26 04:54:11;;;;;;;13.05;8.50;;;;;;;-3.45;100.00;96143.75;5022327;28;20030;-66
2023/11/26 04:56:37;;;;;;;9.45;7.25;;;;;;;-3.46;100.00;96156.69;5031246;28;20029;-66
2023/11/26 04:59:03;;;;;;;10.63;7.38;;;;;;;-3.48;100.00;96154.16;5028966;28;20108;-66
2023/11/26 05:01:28;;;;;;;8.98;7.15;;;;;;;-3.52;100.00;96154.31;5028151;28;20032;-66
2023/11/26 05:03:53;;;;;;;12.25;6.28;;;;;;;-3.52;100.00;96165.44;5030110;28;20029;-66
2023/11/26 05:06:19;;;;;;;8.75;6.53;;;;;;;-3.49;100.00;96162.75;5018648;28;20018;-66
2023/11/26 05:08:44;;;;;;;6.85;6.07;;;;;;;-3.48;100.00;96168.78;5030818;28;20113;-66
2023/11/26 05:11:10;;;;;;;8.35;5.65;;;;;;;-3.48;100.00;96166.19;5018706;28;20029;-66
2023/11/26 05:13:36;;;;;;;9.05;5.32;;;;;;;-3.48;100.00;96177.31;5019819;28;20026;-67
2023/11/26 05:16:01;;;;;;;10.25;5.90;;;;;;;-3.51;100.00;96174.84;5035920;28;20074;-66
2023/11/26 05:18:27;;;;;;;7.68;5.43;;;;;;;-3.50;100.00;96181.69;5034257;28;20180;-66
2023/11/26 05:20:52;;;;;;;7.10;6.40;;;;;;;-3.50;100.00;96181.69;5019691;28;20074;-66
2023/11/26 05:23:18;;;;;;;10.63;7.90;;;;;;;-3.49;100.00;96188.50;5024067;28;20029;-66
2023/11/26 05:25:44;;;;;;;13.65;9.35;;;;;;;-3.49;100.00;96183.34;5025787;28;20102;-66
2023/11/26 05:28:09;;;;;;;12.13;8.65;;;;;;;-3.47;100.00;96193.63;5019258;28;20022;-66
2023/11/26 05:30:35;;;;;;;9.02;6.30;;;;;;;-3.47;100.00;96193.63;5017507;28;20022;-66
2023/11/26 05:33:01;;;;;;;6.47;5.32;;;;;;;-3.45;100.00;96190.09;5031264;28;20021;-66
2023/11/26 05:35:28;;;;;;;8.85;4.93;;;;;;;-3.41;100.00;96196.03;5031904;28;20092;-66
2023/11/26 05:37:54;;;;;;;9.30;7.25;;;;;;;-3.38;100.00;96200.25;5023624;28;20096;-66
2023/11/26 05:40:20;;;;;;;12.32;7.22;;;;;;;-3.38;100.00;96193.34;5022013;28;20032;-66
2023/11/26 05:42:45;;;;;;;7.57;5.82;;;;;;;-3.41;100.00;96202.91;5017677;28;20022;-66
2023/11/26 05:45:11;;;;;;;11.38;6.15;;;;;;;-3.45;100.00;96194.44;5033339;28;20017;-66
2023/11/26 05:47:36;;;;;;;11.05;7.00;;;;;;;-3.38;100.00;96206.22;5021997;28;20530;-66
2023/11/26 05:50:02;;;;;;;13.73;10.48;;;;;;;-3.39;100.00;96196.00;5025207;28;20049;-66
2023/11/26 05:52:28;;;;;;;15.18;10.30;;;;;;;-3.38;100.00;96197.69;5028662;28;20049;-66
2023/11/26 05:54:53;;;;;;;10.25;9.13;;;;;;;-3.43;100.00;96199.50;5023649;28;20040;-66
2023/11/26 05:57:19;;;;;;;14.10;8.98;;;;;;;-3.50;100.00;96199.69;5036634;28;20032;-67
2023/11/26 05:59:45;;;;;;;13.13;8.80;;;;;;;-3.53;100.00;96191.25;5019104;28;20032;-66
2023/11/26 06:02:10;;;;;;;16.45;13.23;;;;;;;-3.49;100.00;96198.81;5031957;28;20331;-67
2023/11/26 06:04:36;;;;;;;17.73;11.48;;;;;;;-3.50;100.00;96196.28;5027600;28;20052;-67
2023/11/26 06:07:03;;;;;;;14.23;12.00;;;;;;;-3.57;100.00;96197.34;5016771;28;20026;-66
2023/11/26 06:09:29;;;;;;;19.90;13.45;;;;;;;-3.59;100.00;96197.41;5025502;28;20021;-66
2023/11/26 06:11:54;;;;;;;17.98;13.43;;;;;;;-3.65;100.00;96200.13;5049419;28;20115;-66
2023/11/26 06:14:20;;;;;;;18.17;13.13;;;;;;;-3.70;100.00;96194.25;5016979;28;20025;-66
2023/11/26 06:16:45;;;;;;;18.23;12.55;;;;;;;-3.76;100.00;96206.41;5015949;28;20559;-66
2023/11/26 06:19:11;;;;;;;17.83;13.63;;;;;;;-3.77;100.00;96204.72;5017228;28;20048;-67
2023/11/26 06:21:37;;;;;;;16.90;12.25;;;;;;;-3.75;100.00;96204.72;5024007;28;20017;-66
2023/11/26 06:24:02;;;;;;;19.67;13.55;;;;;;;-3.78;100.00;96200.47;5028413;28;20034;-66
2023/11/26 06:26:28;;;;;;;21.13;12.52;;;;;;;-3.77;100.00;96199.59;5015782;28;20445;-66
2023/11/26 06:28:54;;;;;;;18.08;12.40;;;;;;;-3.71;100.00;96197.72;5028547;28;20113;-66
2023/11/26 06:31:22;;;;;;;18.38;12.80;;;;;;;-3.71;100.00;96185.72;5017720;28;20053;-66
2023/11/26 06:33:48;;;;;;;21.20;12.77;;;;;;;-3.76;100.00;96193.56;5029610;28;20073;-66
2023/11/26 06:36:21;;;;;;;20.67;12.57;;;;;;;-3.82;100.00;96193.72;5026529;28;20520;-66
2023/11/26 06:38:51;;;;;;;27.60;12.07;;;;;;;-3.85;100.00;96187.81;5031421;28;20022;-66
2023/11/26 06:41:27;;;;;;;17.15;11.38;;;;;;;-3.89;100.00;96189.63;5027994;28;20109;-66
2023/11/26 06:43:53;;;;;;;15.85;10.15;;;;;;;-3.86;100.00;96189.56;5022002;28;20199;-66
2023/11/26 06:46:23;;;;;;;29.90;16.20;;;;;;;-3.91;100.00;96181.94;5034903;28;20041;-67
2023/11/26 06:48:50;;;;;;;21.83;13.35;;;;;;;-3.91;100.00;96189.66;5021181;28;20022;-66
2023/11/26 06:51:17;;;;;;;21.42;13.02;;;;;;;-3.93;100.00;96186.31;5020045;28;20045;-66
2023/11/26 06:53:43;;;;;;;18.35;10.77;;;;;;;-3.94;100.00;96183.75;5018358;28;20034;-66
2023/11/26 06:56:09;;;;;;;15.98;9.88;;;;;;;-3.94;100.00;96178.59;5031059;28;20025;-66
2023/11/26 06:58:38;;;;;;;16.05;9.88;;;;;;;-3.95;100.00;96185.50;5022523;28;20490;-66
2023/11/26 07:01:05;;;;;;;12.07;9.05;;;;;;;-3.95;100.00;96182.94;5019993;28;20022;-66
2023/11/26 07:03:32;;;;;;;13.65;9.07;;;;;;;-3.93;100.00;96181.16;5021321;28;20021;-66
2023/11/26 07:05:58;;;;;;;12.05;8.55;;;;;;;-4.01;100.00;96174.53;5021339;28;20792;-66
2023/11/26 07:08:24;;;;;;;18.63;9.02;;;;;;;-4.00;100.00;96181.34;5023223;28;20414;-66
2023/11/26 07:10:49;;;;;;;16.38;8.90;;;;;;;-4.01;100.00;96182.25;5019633;28;20076;-66
2023/11/26 07:13:15;;;;;;;17.83;11.77;;;;;;;-4.03;100.00;96180.56;5027307;28;20500;-66
2023/11/26 07:15:41;;;;;;;20.40;11.27;;;;;;;-4.04;100.00;96191.72;5013475;28;20471;-66
2023/11/26 07:18:06;;;;;;;14.10;9.25;;;;;;;-3.97;100.00;96191.56;5022696;28;20055;-67
2023/11/26 07:20:32;;;;;;;14.32;8.75;;;;;;;-3.87;100.00;96198.13;5017313;28;20026;-66
2023/11/26 07:22:57;;;;;;;11.73;9.93;;;;;;;-3.80;100.00;96186.81;5019406;28;20017;-66
2023/11/26 07:25:23;;;;;;;13.18;10.45;;;;;;;-3.78;100.00;96197.03;5019477;28;20025;-66
2023/11/26 07:27:48;;;;;;;14.30;9.93;;;;;;;-3.79;100.00;96192.78;5017093;28;20026;-66
2023/11/26 07:30:14;;;;;;;16.80;10.90;;;;;;;-3.80;100.00;96191.09;5019021;28;20026;-67
2023/11/26 07:32:42;;;;;;;17.58;9.73;;;;;;;-3.80;100.00;96197.09;5021221;28;20387;-66
2023/11/26 07:35:08;;;;;;;20.00;10.32;;;;;;;-3.78;100.00;96203.03;5022362;28;20564;-66
2023/11/26 07:37:34;;;;;;;16.20;10.10;;;;;;;-3.78;100.00;96203.03;5021451;28;20140;-67
2023/11/26 07:39:59;;;;;;;22.70;10.75;;;;;;;-3.76;100.00;96203.84;5019309;28;20048;-67
2023/11/26 07:42:24;;;;;;;18.70;10.77;;;;;;;-3.74;100.00;96207.22;5023569;28;20029;-67
2023/11/26 07:44:50;;;;;;;24.38;13.13;;;;;;;-3.72;100.00;96208.91;5018242;28;20030;-66
2023/11/26 07:47:15;;;;;;;29.38;15.57;;;;;;;-3.72;100.00;96208.91;5015847;28;20049;-67
2023/11/26 07:49:41;;;;;;;21.95;14.25;;;;;;;-3.71;100.00;96202.88;5019399;28;20037;-66
2023/11/26 07:52:08;;;;;;;15.82;12.52;;;;;;;-3.77;100.00;96202.16;5016315;28;20050;-67
2023/11/26 07:54:34;;;;;;;24.10;12.20;;;;;;;-3.74;100.00;96202.06;5042833;28;20059;-67
2023/11/26 07:56:59;;;;;;;19.75;12.43;;;;;;;-3.73;100.00;96202.94;5020374;28;20441;-67
2023/11/26 07:59:25;;;;;;;17.48;10.07;;;;;;;-3.72;100.00;96206.34;5017620;28;20038;-66
2023/11/26 08:01:52;;;;;;;14.73;10.55;;;;;;;-3.74;100.00;96209.78;5031469;28;20033;-67
2023/11/26 08:04:18;;;;;;;18.70;12.20;;;;;;;-3.71;100.00;96208.88;5022171;28;20029;-67
2023/11/26 08:06:47;;;;;;;25.60;16.83;;;;;;;-3.70;100.00;96201.97;5030430;28;20072;-67
2023/11/26 08:09:14;;;;;;;19.23;14.43;;;;;;;-3.74;100.00;96199.50;5012779;28;20601;-66
2023/11/26 08:11:44;;;;;;;19.45;11.73;;;;;;;-3.78;100.00;96197.91;5025019;28;20037;-67
2023/11/26 08:14:12;;;;;;;19.42;11.50;;;;;;;-3.78;100.00;96197.91;5013529;28;20044;-67
2023/11/26 08:16:41;;;;;;;13.45;11.00;;;;;;;-3.71;100.00;96192.56;5032217;28;20573;-67
2023/11/26 08:19:16;;;;;;;14.82;11.98;;;;;;;-3.69;100.00;96181.38;5028898;28;20029;-67
2023/11/26 08:21:42;;;;;;;19.17;14.38;;;;;;;-3.65;100.00;96184.66;5023388;28;20458;-67
2023/11/26 08:24:13;;;;;;;19.00;13.43;;;;;;;-3.62;100.00;96187.19;5027318;28;20096;-67
2023/11/26 08:26:40;;;;;;;24.27;16.50;;;;;;;-3.61;100.00;96188.88;5015937;28;20029;-66
2023/11/26 08:29:06;;;;;;;21.42;16.10;;;;;;;-3.61;100.00;96192.28;5024997;28;20041;-66
2023/11/26 08:31:34;;;;;;;17.70;13.50;;;;;;;-3.58;100.00;96187.94;5027550;28;20454;-67
2023/11/26 08:34:01;;;;;;;17.30;12.77;;;;;;;-3.54;100.00;96200.69;5029888;28;20429;-67
2023/11/26 08:36:29;;;;;;;18.63;12.73;;;;;;;-3.51;100.00;96204.91;5024759;28;20030;-66
2023/11/26 08:38:54;;;;;;;16.52;13.45;;;;;;;-3.48;100.00;96200.50;5019578;28;20030;-67
2023/11/26 08:41:21;;;;;;;13.93;10.50;;;;;;;-3.47;100.00;96198.78;5020013;28;20032;-65
2023/11/26 08:43:48;;;;;;;14.18;12.45;;;;;;;-3.47;100.00;96197.03;5023519;28;20036;-64
2023/11/26 08:46:16;;;;;;;18.17;10.88;;;;;;;-3.46;100.00;96192.75;5017942;28;20075;-63
2023/11/26 08:48:41;;;;;;;16.50;11.25;;;;;;;-3.46;100.00;96192.75;5032536;28;20036;-64
2023/11/26 08:51:08;;;;;;;14.73;11.55;;;;;;;-3.49;100.00;96193.66;5019124;28;20038;-64
2023/11/26 08:53:33;;;;;;;21.52;16.65;;;;;;;-3.46;100.00;96187.59;5022206;28;20060;-63
2023/11/26 08:56:00;;;;;;;20.67;17.20;;;;;;;-3.46;100.00;96193.56;5016468;28;20049;-64
2023/11/26 08:58:26;;;;;;;31.65;19.35;;;;;;;-3.41;100.00;96190.03;5016004;28;20440;-63
2023/11/26 09:00:51;;;;;;;26.92;19.20;;;;;;;-3.39;100.00;96188.25;5024333;28;20041;-64
2023/11/26 09:03:16;;;;;;;24.27;18.27;;;;;;;-3.38;100.00;96188.19;5034622;28;20486;-64
2023/11/26 09:05:42;;;;;;;23.02;16.95;;;;;;;-3.26;100.00;96189.56;5033900;28;20079;-64
2023/11/26 09:08:08;;;;;;;22.92;15.63;;;;;;;-2.72;100.00;96192.25;5033889;28;20822;-64
2023/11/26 09:10:34;;;;;;;26.65;16.92;;;;;;;-2.16;100.00;96195.59;5022853;28;20037;-64
2023/11/26 09:13:00;;;;;;;21.20;16.70;;;;;;;-1.61;100.00;96198.00;5034530;28;20032;-64
2023/11/26 09:15:27;;;;;;;43.30;35.85;;;;;;;-1.10;100.00;96199.63;5021310;28;20156;-65
2023/11/26 09:17:52;;;;;;;67.35;53.95;;;;;;;-0.67;100.00;96202.28;5023110;28;20040;-65
2023/11/26 09:20:18;;;;;;;19.48;14.77;;;;;;;-0.36;100.00;96208.84;5027732;28;20025;-65
2023/11/26 09:22:43;;;;;;;15.38;13.73;;;;;;;-0.23;100.00;96193.66;5018294;28;20164;-65
2023/11/26 09:25:14;;;;;;;23.08;16.10;;;;;;;-0.09;100.00;96193.94;5022064;28;20033;-66
2023/11/26 09:27:40;;;;;;;18.70;13.85;;;;;;;0.24;100.00;96184.81;5024542;28;20172;-65
2023/11/26 09:30:10;;;;;;;17.33;11.80;;;;;;;0.56;100.00;96185.13;5018362;28;20928;-65
2023/11/26 09:32:37;;;;;;;17.83;14.68;;;;;;;0.83;100.00;96185.66;5024651;28;20034;-65
2023/11/26 09:35:03;;;;;;;15.50;11.68;;;;;;;1.00;100.00;96177.09;5026344;28;20033;-65
2023/11/26 09:37:29;;;;;;;20.08;11.90;;;;;;;1.10;100.00;96168.88;5021643;28;20029;-65
2023/11/26 09:39:55;;;;;;;11.70;8.38;;;;;;;1.20;100.00;96166.69;5020311;28;20039;-64
2023/11/26 09:42:24;;;;;;;6.00;5.45;;;;;;;1.41;100.00;96150.09;5028204;28;20061;-65
2023/11/26 09:44:50;;;;;;;4.60;4.13;;;;;;;1.59;100.00;96131.94;5016650;28;20065;-65
2023/11/26 09:47:18;;;;;;;9.27;5.43;;;;;;;1.66;100.00;96120.34;5019289;28;20144;-65
2023/11/26 09:49:43;;;;;;;21.58;9.45;;;;;;;1.55;100.00;96122.63;5015149;28;20034;-65
2023/11/26 09:52:09;;;;;;;39.05;21.90;;;;;;;1.60;100.00;96125.84;5017752;28;20060;-65
2023/11/26 09:54:35;;;;;;;6.15;3.85;;;;;;;1.51;100.00;96113.31;5027663;28;20653;-65
2023/11/26 09:57:02;;;;;;;6.35;3.20;;;;;;;1.65;100.00;96108.25;5014192;28;20037;-65
2023/11/26 09:59:34;;;;;;;12.35;7.88;;;;;;;1.83;100.00;96106.53;5014732;28;20033;-66
2023/11/26 10:02:01;;;;;;;7.90;5.80;;;;;;;1.92;100.00;96093.97;5031457;28;20025;-65
2023/11/26 10:04:27;;;;;;;15.23;10.55;;;;;;;1.99;100.00;96092.75;5025953;28;20052;-65
2023/11/26 10:06:54;;;;;;;8.02;6.50;;;;;;;2.01;100.00;96088.31;5013908;28;20029;-65
2023/11/26 10:09:21;;;;;;;10.38;8.68;;;;;;;2.08;100.00;96089.66;5014834;28;20443;-65
2023/11/26 10:11:47;;;;;;;15.52;9.50;;;;;;;2.12;100.00;96079.97;5026124;28;20474;-65
2023/11/26 10:14:18;;;;;;;18.25;10.55;;;;;;;2.23;100.00;96082.81;5012639;28;20033;-65
2023/11/26 10:16:43;;;;;;;14.77;10.35;;;;;;;2.37;100.00;96078.66;5016422;28;20115;-64
2023/11/26 10:19:28;;;;;;;10.43;6.03;;;;;;;2.61;100.00;96076.50;5027544;28;20033;-64
2023/11/26 10:21:56;;;;;;;6.65;5.25;;;;;;;2.78;100.00;96073.00;5021672;28;20088;-64
2023/11/26 10:24:23;;;;;;;7.70;5.70;;;;;;;2.95;100.00;96061.63;5022115;28;20029;-65
2023/11/26 10:26:52;;;;;;;8.65;7.53;;;;;;;2.99;100.00;96051.91;5017166;28;20029;-64
2023/11/26 10:29:25;;;;;;;10.00;6.97;;;;;;;3.03;100.00;96048.22;5021458;28;20493;-64
2023/11/26 10:32:01;;;;;;;7.68;5.70;;;;;;;2.99;100.00;96044.09;5031577;28;20192;-64
2023/11/26 10:34:36;;;;;;;9.63;5.05;;;;;;;3.17;100.00;96054.38;5025783;28;20115;-65
2023/11/26 10:37:16;;;;;;;10.82;5.28;;;;;;;3.26;100.00;96039.06;5015133;28;20021;-65
2023/11/26 10:39:41;;;;;;;6.47;4.53;;;;;;;3.61;100.00;96035.34;5014894;28;20038;-65
2023/11/26 10:42:09;;;;;;;8.77;6.30;;;;;;;3.69;100.00;96027.06;5014661;28;20579;-65
2023/11/26 10:44:36;;;;;;;9.27;6.20;;;;;;;3.81;100.00;96028.97;5022922;28;20045;-66
2023/11/26 10:47:05;;;;;;;9.55;4.80;;;;;;;3.97;100.00;96031.47;5019940;28;20452;-65
2023/11/26 10:49:39;;;;;;;4.55;3.90;;;;;;;3.94;100.00;96033.41;5016812;28;20038;-65
2023/11/26 10:52:23;;;;;;;7.63;4.38;;;;;;;4.07;100.00;96030.91;5023113;28;20054;-65
2023/11/26 10:54:57;;;;;;;8.00;6.13;;;;;;;4.16;100.00;96019.94;5028042;28;20446;-66
2023/11/26 10:57:33;;;;;;;12.07;6.20;;;;;;;4.19;100.00;96014.53;5023868;28;20057;-66
2023/11/26 11:00:02;;;;;;;7.57;4.55;;;;;;;4.25;100.00;96013.31;5017328;28;20087;-65
2023/11/26 11:02:31;;;;;;;6.55;4.57;;;;;;;4.16;100.00;96009.50;5018643;28;20559;-65
2023/11/26 11:04:59;;;;;;;7.43;4.50;;;;;;;4.07;100.00;96010.06;5026896;28;20043;-66
2023/11/26 11:07:26;;;;;;;4.95;4.30;;;;;;;4.18;100.00;96005.03;5024963;28;20026;-66
2023/11/26 11:09:54;;;;;;;5.60;4.75;;;;;;;4.04;100.00;96013.72;5017496;28;20030;-66
2023/11/26 11:12:24;;;;;;;6.35;3.63;;;;;;;4.41;100.00;96010.59;5024466;28;20479;-65
2023/11/26 11:14:53;;;;;;;5.30;4.20;;;;;;;4.48;100.00;96009.25;5021690;28;20033;-66
2023/11/26 11:17:30;;;;;;;5.13;4.28;;;;;;;4.70;100.00;96010.50;5025520;28;20105;-66